Time;durP1;ratioP1;P1;durP2;ratioP2;P2;SDS_P1;SDS_P2;PMS_P1;PMS_P2;Temp;Humidity;BMP_temperature;BMP_pressure;BME280_temperature;BME280_humidity;BME280_pressure;Samples;Min_cycle;Max_cycle;Signal;HPM_P1;HPM_P2
2022/12/06 00:01:20;;;;;;;26.48;15.07;;;;;;;4.60;100.00;102012.09;5268473;28;20021;-90
2022/12/06 00:03:54;;;;;;;21.98;14.52;;;;;;;4.59;100.00;102017.47;5263104;28;20018;-91
2022/12/06 00:06:28;;;;;;;26.02;14.73;;;;;;;4.60;100.00;102008.63;5256578;28;20041;-90
2022/12/06 00:09:00;;;;;;;19.10;13.23;;;;;;;4.58;100.00;102013.13;5260360;28;20021;-90
2022/12/06 00:11:33;;;;;;;24.45;13.32;;;;;;;4.54;100.00;102007.97;5259591;28;20037;-89
2022/12/06 00:14:06;;;;;;;23.33;14.02;;;;;;;4.56;100.00;102013.19;5278946;28;20030;-90
2022/12/06 00:16:37;;;;;;;22.00;14.02;;;;;;;4.52;100.00;102001.94;5264904;28;20048;-90
2022/12/06 00:19:12;;;;;;;20.83;13.48;;;;;;;4.57;100.00;102017.53;5266223;28;20073;-90
2022/12/06 00:21:47;;;;;;;20.85;14.40;;;;;;;4.54;100.00;102009.75;5264021;28;20042;-90
2022/12/06 00:24:20;;;;;;;25.95;14.57;;;;;;;4.55;100.00;102014.97;5263657;28;20923;-90
2022/12/06 00:26:52;;;;;;;23.95;15.02;;;;;;;4.53;100.00;102014.19;5263543;28;20030;-90
2022/12/06 00:29:23;;;;;;;23.98;14.57;;;;;;;4.54;100.00;102009.75;5263349;28;20532;-90
2022/12/06 00:31:55;;;;;;;24.38;14.82;;;;;;;4.54;100.00;102012.38;5263009;28;20359;-91
2022/12/06 00:34:26;;;;;;;22.75;14.48;;;;;;;4.52;100.00;102007.22;5247039;28;20025;-90
2022/12/06 00:36:58;;;;;;;19.67;13.65;;;;;;;4.54;100.00;102015.03;5261323;28;20446;-90
2022/12/06 00:39:29;;;;;;;19.75;13.63;;;;;;;4.55;100.00;102008.81;5263098;28;20108;-90
2022/12/06 00:42:01;;;;;;;20.10;13.50;;;;;;;4.51;100.00;102007.28;5257842;28;20105;-90
2022/12/06 00:44:32;;;;;;;20.02;13.80;;;;;;;4.48;100.00;102007.41;5263169;28;20036;-91
2022/12/06 00:47:03;;;;;;;20.27;13.82;;;;;;;4.51;100.00;102004.63;5254769;28;20063;-90
2022/12/06 00:49:35;;;;;;;20.63;13.23;;;;;;;4.53;100.00;102008.06;5262979;28;20156;-90
2022/12/06 00:52:06;;;;;;;23.23;13.90;;;;;;;4.51;100.00;102013.41;5245259;28;20139;-90
2022/12/06 00:54:37;;;;;;;22.00;13.70;;;;;;;4.52;100.00;102009.84;5263546;28;20118;-91
2022/12/06 00:57:09;;;;;;;19.13;12.52;;;;;;;4.52;100.00;102009.84;5246256;28;20022;-91
2022/12/06 00:59:40;;;;;;;21.15;14.00;;;;;;;4.50;100.00;102014.31;5263459;28;20099;-90
2022/12/06 01:02:15;;;;;;;19.35;13.57;;;;;;;4.54;100.00;102015.03;5263876;28;20025;-91
2022/12/06 01:04:46;;;;;;;20.73;13.27;;;;;;;4.52;100.00;102016.91;5264071;28;20026;-91
2022/12/06 01:07:18;;;;;;;20.35;13.07;;;;;;;4.50;100.00;102011.69;5274986;28;20021;-92
2022/12/06 01:09:49;;;;;;;20.45;13.15;;;;;;;4.51;100.00;102012.56;5262830;28;20061;-91
2022/12/06 01:12:20;;;;;;;20.02;12.68;;;;;;;4.52;100.00;102011.63;5247252;28;20461;-91
2022/12/06 01:14:52;;;;;;;20.08;13.30;;;;;;;4.51;100.00;102013.41;5249651;28;20033;-92
2022/12/06 01:17:23;;;;;;;18.08;12.68;;;;;;;4.54;100.00;102010.63;5256996;28;20086;-91
2022/12/06 01:19:55;;;;;;;18.98;13.23;;;;;;;4.48;100.00;102005.63;5280349;28;20081;-91
2022/12/06 01:22:26;;;;;;;20.60;12.70;;;;;;;4.53;100.00;102011.53;5282844;28;20036;-91
2022/12/06 01:24:58;;;;;;;22.52;12.88;;;;;;;4.53;100.00;102015.97;5286389;28;20026;-91
2022/12/06 01:27:29;;;;;;;18.45;11.65;;;;;;;4.53;100.00;102013.34;5272888;28;20010;-89
2022/12/06 01:30:00;;;;;;;20.98;11.82;;;;;;;4.48;100.00;102004.78;5286533;28;20029;-90
2022/12/06 01:32:32;;;;;;;21.48;11.65;;;;;;;4.53;100.00;102013.34;5269084;28;20049;-90
2022/12/06 01:35:04;;;;;;;17.65;10.52;;;;;;;4.55;100.00;102014.97;5271605;28;20026;-90
2022/12/06 01:37:35;;;;;;;20.27;10.95;;;;;;;4.64;100.00;102012.81;5286817;28;20099;-91
2022/12/06 01:40:08;;;;;;;22.75;12.70;;;;;;;4.55;100.00;102019.41;5280868;28;20017;-91
2022/12/06 01:42:39;;;;;;;22.38;12.68;;;;;;;4.52;100.00;102001.03;5285510;28;20045;-91
2022/12/06 01:45:11;;;;;;;20.98;12.52;;;;;;;4.55;100.00;102007.03;5287236;28;20030;-91
2022/12/06 01:47:43;;;;;;;25.77;12.80;;;;;;;4.56;100.00;102005.28;5284837;28;20082;-92
2022/12/06 01:50:20;;;;;;;23.85;11.98;;;;;;;4.64;100.00;102004.88;5289128;28;20016;-92
2022/12/06 01:53:02;;;;;;;26.33;13.10;;;;;;;4.48;100.00;101979.19;5290081;28;20037;-93
2022/12/06 01:55:37;;;;;;;20.13;12.63;;;;;;;4.55;100.00;101993.81;5289823;28;20044;-91
2022/12/06 01:58:16;;;;;;;24.20;13.83;;;;;;;4.62;100.00;102004.09;5279814;28;20026;-90
2022/12/06 02:00:48;;;;;;;24.13;13.20;;;;;;;4.53;100.00;101994.84;5289330;28;20053;-90
2022/12/06 02:03:24;;;;;;;26.88;13.85;;;;;;;4.58;100.00;102000.75;5297938;28;20014;-89
2022/12/06 02:05:58;;;;;;;21.42;12.82;;;;;;;4.72;100.00;102008.00;5276255;28;20018;-90
2022/12/06 02:08:30;;;;;;;27.88;13.48;;;;;;;4.49;100.00;101988.84;5286298;28;20001;-90
2022/12/06 02:11:02;;;;;;;20.80;12.48;;;;;;;4.63;100.00;102008.44;5280534;28;20026;-90
2022/12/06 02:13:35;;;;;;;23.15;12.88;;;;;;;4.62;100.00;102002.31;5278780;28;20084;-91
2022/12/06 02:16:18;;;;;;;19.80;12.13;;;;;;;4.63;100.00;101995.22;5275897;28;20033;-90
2022/12/06 02:18:59;;;;;;;21.30;12.27;;;;;;;4.61;100.00;102005.91;5262421;28;20044;-90
2022/12/06 02:21:41;;;;;;;15.57;10.05;;;;;;;4.63;100.00;102009.31;5280207;28;20495;-91
2022/12/06 02:24:50;;;;;;;19.60;10.57;;;;;;;4.61;100.00;102000.63;5280901;28;20033;-91
2022/12/06 02:27:50;;;;;;;18.38;10.35;;;;;;;4.60;100.00;102001.53;5276914;28;20033;-91
2022/12/06 02:30:33;;;;;;;19.00;10.63;;;;;;;4.57;100.00;101995.53;5272891;28;20504;-91
2022/12/06 02:33:21;;;;;;;15.88;10.35;;;;;;;4.53;100.00;101995.69;5269183;28;20497;-91
2022/12/06 02:36:17;;;;;;;16.25;11.60;;;;;;;4.57;100.00;101995.53;5265927;28;20046;-90
2022/12/06 02:38:56;;;;;;;18.90;10.35;;;;;;;4.50;100.00;101989.69;5262145;28;20030;-90
2022/12/06 02:41:58;;;;;;;16.60;10.52;;;;;;;4.52;100.00;101995.75;5263857;28;20056;-91
2022/12/06 02:44:46;;;;;;;19.65;10.57;;;;;;;4.50;100.00;101987.91;5239232;28;20129;-91
2022/12/06 02:47:21;;;;;;;19.52;10.90;;;;;;;4.42;100.00;101989.22;5274136;28;20033;-90
2022/12/06 02:49:55;;;;;;;17.33;9.60;;;;;;;4.42;100.00;101991.84;5268242;28;20030;-90
2022/12/06 02:52:29;;;;;;;17.10;9.85;;;;;;;4.38;100.00;101988.50;5268372;28;20826;-90
2022/12/06 02:55:01;;;;;;;15.93;9.90;;;;;;;4.39;100.00;101990.22;5261059;28;20060;-90
2022/12/06 02:57:40;;;;;;;17.70;10.52;;;;;;;4.41;100.00;101991.00;5246153;28;20080;-90
2022/12/06 03:00:27;;;;;;;18.08;9.85;;;;;;;4.45;100.00;101981.13;5268191;28;20030;-90
2022/12/06 03:03:22;;;;;;;18.95;10.40;;;;;;;4.47;100.00;101985.44;5263726;28;20053;-91
2022/12/06 03:05:53;;;;;;;21.33;10.38;;;;;;;4.41;100.00;101984.88;5240159;28;20022;-90
2022/12/06 03:08:36;;;;;;;14.38;9.70;;;;;;;4.45;100.00;101986.44;5259443;28;20021;-90
2022/12/06 03:11:09;;;;;;;14.27;9.05;;;;;;;4.36;100.00;101977.16;5264085;28;20018;-91
2022/12/06 03:13:58;;;;;;;19.42;10.55;;;;;;;4.43;100.00;101991.78;5265797;28;20411;-90
2022/12/06 03:16:45;;;;;;;17.15;10.50;;;;;;;4.43;100.00;101981.22;5243139;28;20033;-90
2022/12/06 03:19:23;;;;;;;17.80;11.43;;;;;;;4.46;100.00;101985.50;5266566;28;20092;-91
2022/12/06 03:22:01;;;;;;;22.27;12.18;;;;;;;4.45;100.00;101983.78;5262910;28;20506;-91
2022/12/06 03:24:36;;;;;;;20.63;11.80;;;;;;;4.38;100.00;101983.22;5257371;28;20036;-90
2022/12/06 03:27:15;;;;;;;19.70;11.60;;;;;;;4.45;100.00;101997.00;5261955;28;20112;-90
2022/12/06 03:29:52;;;;;;;19.77;11.48;;;;;;;4.50;100.00;101995.84;5264059;28;20033;-90
2022/12/06 03:32:29;;;;;;;26.67;11.48;;;;;;;4.53;100.00;101994.84;5275129;28;20014;-90
2022/12/06 03:35:06;;;;;;;25.10;10.98;;;;;;;4.43;100.00;101986.50;5277523;28;20021;-91
2022/12/06 03:37:42;;;;;;;23.67;10.95;;;;;;;4.52;100.00;101985.19;5253070;28;20479;-91
2022/12/06 03:40:23;;;;;;;22.75;11.18;;;;;;;4.47;100.00;101984.56;5245394;28;20061;-91
2022/12/06 03:42:55;;;;;;;22.60;10.93;;;;;;;4.35;100.00;101971.03;5250273;28;20029;-90
2022/12/06 03:45:35;;;;;;;24.10;11.00;;;;;;;4.44;100.00;101980.28;5267488;28;20436;-91
2022/12/06 03:48:41;;;;;;;20.48;11.65;;;;;;;4.57;100.00;101996.41;5271989;28;20030;-91
2022/12/06 03:51:19;;;;;;;20.20;11.68;;;;;;;4.61;100.00;101987.41;5243556;28;20131;-90
2022/12/06 03:53:57;;;;;;;26.38;12.45;;;;;;;4.55;100.00;101992.97;5262708;28;20427;-89
2022/12/06 03:56:30;;;;;;;29.45;13.02;;;;;;;4.54;100.00;101985.97;5246927;28;20026;-89
2022/12/06 03:59:03;;;;;;;26.67;12.27;;;;;;;4.55;100.00;101993.81;5250103;28;20176;-90
2022/12/06 04:01:36;;;;;;;27.48;13.65;;;;;;;4.48;100.00;101997.69;5251781;28;20075;-90
2022/12/06 04:04:08;;;;;;;26.23;13.10;;;;;;;4.48;100.00;101988.94;5245546;28;20112;-91
2022/12/06 04:06:40;;;;;;;25.23;13.45;;;;;;;4.47;100.00;101989.84;5263335;28;20025;-91
2022/12/06 04:12:01;;;;;;;27.30;13.30;;;;;;;4.41;100.00;101988.38;5263826;28;20026;-90
2022/12/06 04:14:38;;;;;;;27.40;12.02;;;;;;;4.44;100.00;101990.00;5268087;28;20032;-90
2022/12/06 04:19:59;;;;;;;25.13;12.43;;;;;;;4.46;100.00;101982.88;5268870;28;19921;-90
2022/12/06 04:25:20;;;;;;;27.38;13.32;;;;;;;4.42;100.00;101984.81;5268780;28;20029;-90
2022/12/06 04:39:11;;;;;;;28.27;13.65;;;;;;;4.44;100.00;101990.88;5263839;28;20030;-90
2022/12/06 04:44:33;;;;;;;28.67;13.80;;;;;;;4.39;100.00;101990.22;5266037;28;20033;-90
2022/12/06 04:47:04;;;;;;;33.05;13.93;;;;;;;4.45;100.00;101995.22;5285308;28;20036;-91
2022/12/06 04:49:37;;;;;;;32.55;15.35;;;;;;;4.44;100.00;101992.66;5287515;28;20021;-91
2022/12/06 04:52:09;;;;;;;28.55;13.38;;;;;;;4.43;100.00;101990.94;5288470;28;20022;-90
2022/12/06 04:54:40;;;;;;;36.25;14.52;;;;;;;4.44;100.00;101987.38;5282076;28;20084;-90
2022/12/06 04:57:14;;;;;;;32.70;14.75;;;;;;;4.37;100.00;101985.97;5277145;28;20073;-89
2022/12/06 04:59:45;;;;;;;28.98;14.07;;;;;;;4.41;100.00;101991.00;5265939;28;20022;-90
2022/12/06 05:02:17;;;;;;;28.10;13.57;;;;;;;4.39;100.00;101984.94;5246208;28;20466;-91
2022/12/06 05:04:48;;;;;;;29.85;14.15;;;;;;;4.41;100.00;101984.88;5245963;28;20378;-90
2022/12/06 05:07:20;;;;;;;29.05;13.13;;;;;;;4.37;100.00;101980.69;5261888;28;20448;-91
2022/12/06 05:09:51;;;;;;;32.17;13.93;;;;;;;4.30;100.00;101973.03;5261988;28;20037;-91
2022/12/06 05:12:23;;;;;;;39.53;13.77;;;;;;;4.40;100.00;101985.78;5263768;28;20026;-90
2022/12/06 05:14:54;;;;;;;26.85;13.48;;;;;;;4.35;100.00;101981.59;5265681;28;20033;-90
2022/12/06 05:17:25;;;;;;;26.38;12.73;;;;;;;4.38;100.00;101983.22;5247780;28;20064;-90
2022/12/06 05:19:57;;;;;;;29.65;13.93;;;;;;;4.31;100.00;101972.13;5266678;28;20072;-90
2022/12/06 05:22:32;;;;;;;28.08;13.55;;;;;;;4.29;100.00;101957.25;5266471;28;20056;-90
2022/12/06 05:25:03;;;;;;;27.85;13.38;;;;;;;4.33;100.00;101958.81;5263460;28;20481;-90
2022/12/06 05:27:35;;;;;;;31.25;14.68;;;;;;;4.41;100.00;101976.94;5263933;28;20029;-90
2022/12/06 05:30:07;;;;;;;35.35;15.38;;;;;;;4.42;100.00;101979.53;5263111;28;20022;-90
2022/12/06 05:32:39;;;;;;;37.88;15.80;;;;;;;4.39;100.00;101989.38;5242764;28;20450;-91
2022/12/06 05:35:10;;;;;;;35.47;14.40;;;;;;;4.37;100.00;101980.69;5243819;28;20045;-90
2022/12/06 05:37:42;;;;;;;30.65;14.98;;;;;;;4.25;100.00;101961.00;5265087;28;20081;-91
2022/12/06 05:40:13;;;;;;;35.33;15.43;;;;;;;4.20;100.00;101952.44;5264596;28;20052;-91
2022/12/06 05:42:44;;;;;;;28.30;13.73;;;;;;;4.26;100.00;101963.56;5253395;28;20124;-91
2022/12/06 05:45:16;;;;;;;30.05;13.98;;;;;;;4.26;100.00;101967.97;5263892;28;20026;-91
2022/12/06 05:47:48;;;;;;;25.38;14.85;;;;;;;4.24;100.00;101977.75;5269110;28;20025;-90
2022/12/06 05:50:19;;;;;;;34.00;14.43;;;;;;;4.23;100.00;101974.25;5264642;28;20028;-91
2022/12/06 05:52:55;;;;;;;26.05;14.52;;;;;;;4.27;100.00;101982.91;5251758;28;20033;-90
2022/12/06 05:55:26;;;;;;;22.52;12.38;;;;;;;4.16;100.00;101965.78;5257795;28;20077;-90
2022/12/06 05:57:58;;;;;;;26.17;12.55;;;;;;;4.23;100.00;101983.97;5259263;28;20030;-90
2022/12/06 06:00:29;;;;;;;30.83;12.77;;;;;;;4.18;100.00;101978.06;5244110;28;20036;-89
2022/12/06 06:03:01;;;;;;;22.60;11.82;;;;;;;4.06;100.00;101963.66;5262426;28;20030;-91
2022/12/06 06:05:33;;;;;;;25.00;11.90;;;;;;;4.11;100.00;101974.84;5275175;28;20037;-91
2022/12/06 06:08:04;;;;;;;24.42;11.75;;;;;;;4.05;100.00;101968.09;5263247;28;20037;-91
2022/12/06 06:10:36;;;;;;;27.35;11.25;;;;;;;4.11;100.00;101982.78;5262130;28;20024;-92
2022/12/06 06:13:07;;;;;;;27.45;10.45;;;;;;;4.12;100.00;101989.75;5262501;28;20036;-90
2022/12/06 06:15:39;;;;;;;22.15;10.75;;;;;;;4.07;100.00;101982.06;5261566;28;20029;-88
2022/12/06 06:18:10;;;;;;;23.83;10.82;;;;;;;3.97;100.00;101973.72;5261803;28;20018;-90
2022/12/06 06:20:47;;;;;;;26.50;11.23;;;;;;;4.06;100.00;101982.97;5248392;28;20049;-91
2022/12/06 06:23:20;;;;;;;30.23;11.40;;;;;;;4.01;100.00;101982.34;5244329;28;20072;-90
2022/12/06 06:25:52;;;;;;;26.98;11.13;;;;;;;3.92;100.00;101970.44;5261842;28;20021;-91
2022/12/06 06:28:23;;;;;;;25.77;12.05;;;;;;;3.96;100.00;101977.28;5261449;28;20032;-91
2022/12/06 06:30:55;;;;;;;32.97;11.02;;;;;;;4.03;100.00;101990.19;5263846;28;20045;-90
2022/12/06 06:33:26;;;;;;;22.92;11.05;;;;;;;3.91;100.00;101963.44;5263301;28;20099;-90
2022/12/06 06:35:58;;;;;;;25.88;11.45;;;;;;;4.02;100.00;101985.84;5260190;28;20046;-90
2022/12/06 06:38:30;;;;;;;25.80;11.93;;;;;;;3.88;100.00;101966.22;5274489;28;20049;-90
2022/12/06 06:41:03;;;;;;;25.17;12.18;;;;;;;3.83;100.00;101968.22;5279460;28;20342;-90
2022/12/06 06:43:48;;;;;;;27.02;13.35;;;;;;;3.97;100.00;101979.00;5268057;28;20032;-89
2022/12/06 06:46:22;;;;;;;24.77;12.82;;;;;;;3.91;100.00;101983.69;5275326;28;20030;-89
2022/12/06 06:48:59;;;;;;;21.67;12.45;;;;;;;3.79;100.00;101964.88;5264422;28;20073;-90
2022/12/06 06:51:37;;;;;;;27.42;12.30;;;;;;;3.72;100.00;101984.56;5259939;28;20030;-89
2022/12/06 06:54:08;;;;;;;21.60;11.35;;;;;;;3.55;100.00;101981.81;5272557;28;20100;-90
2022/12/06 06:56:40;;;;;;;26.30;10.90;;;;;;;3.45;100.00;101975.25;5273037;28;20037;-90
2022/12/06 06:59:11;;;;;;;26.73;10.80;;;;;;;3.22;100.00;101956.88;5260611;28;20017;-88
2022/12/06 07:01:56;;;;;;;25.67;10.68;;;;;;;3.26;100.00;101970.81;5262914;28;20025;-89
2022/12/06 07:04:28;;;;;;;24.02;10.70;;;;;;;3.14;100.00;101977.47;5271889;28;20490;-90
2022/12/06 07:07:00;;;;;;;24.40;10.63;;;;;;;3.12;100.00;101983.72;5281026;28;20029;-88
2022/12/06 07:09:38;;;;;;;31.02;10.88;;;;;;;2.95;100.00;101969.50;5293169;28;20060;-89
2022/12/06 07:12:18;;;;;;;30.02;10.85;;;;;;;2.98;100.00;101986.94;5284493;28;20513;-90
2022/12/06 07:15:11;;;;;;;;;;;;;;;;;;;;;
2022/12/06 07:17:43;;;;;;;23.77;10.18;;;;;;;2.71;100.00;101959.97;5258409;28;41357;-90
2022/12/06 07:20:26;;;;;;;29.05;10.48;;;;;;;2.80;100.00;101989.41;5263561;28;20137;-91
2022/12/06 07:23:07;;;;;;;25.08;10.07;;;;;;;2.75;100.00;101985.28;5266041;28;20021;-91
2022/12/06 07:25:39;;;;;;;23.92;10.52;;;;;;;2.73;100.00;101979.22;5299849;28;20021;-90
2022/12/06 07:28:10;;;;;;;28.55;10.88;;;;;;;2.77;100.00;101986.06;5296148;28;20120;-89
2022/12/06 07:30:42;;;;;;;32.17;11.85;;;;;;;2.77;100.00;101983.41;5287928;28;20017;-89
2022/12/06 07:33:13;;;;;;;25.92;11.18;;;;;;;2.73;100.00;101980.06;5305142;28;20037;-90
2022/12/06 07:35:50;;;;;;;29.63;10.65;;;;;;;2.80;100.00;101975.41;5278458;28;20010;-90
2022/12/06 07:38:22;;;;;;;28.67;11.30;;;;;;;2.90;100.00;101986.41;5247822;28;20036;-89
2022/12/06 07:40:53;;;;;;;26.35;10.90;;;;;;;2.94;100.00;101991.47;5244339;28;20030;-89
2022/12/06 07:46:15;;;;;;;28.40;11.70;;;;;;;3.00;100.00;101996.50;5244286;28;20057;-90
2022/12/06 07:48:48;;;;;;;24.70;11.25;;;;;;;2.99;100.00;101989.50;5264198;28;20470;-91
2022/12/06 07:51:20;;;;;;;27.17;11.20;;;;;;;3.01;100.00;101992.09;5279844;28;20097;-89
2022/12/06 07:53:51;;;;;;;25.00;10.82;;;;;;;3.10;100.00;102007.50;5264591;28;20104;-90
2022/12/06 07:56:22;;;;;;;20.35;10.02;;;;;;;3.06;100.00;101989.25;5265013;28;20033;-89
2022/12/06 07:58:54;;;;;;;25.17;10.75;;;;;;;3.16;100.00;102015.16;5264459;28;20108;-89
2022/12/06 08:01:25;;;;;;;27.00;9.80;;;;;;;3.11;100.00;101997.84;5263879;28;20022;-89
2022/12/06 08:04:01;;;;;;;28.58;10.07;;;;;;;3.23;100.00;102013.13;5264933;28;20029;-90
2022/12/06 08:06:33;;;;;;;25.23;10.48;;;;;;;3.18;100.00;102008.03;5279273;28;20125;-89
2022/12/06 08:09:06;;;;;;;30.58;10.35;;;;;;;3.24;100.00;102009.53;5263938;28;20393;-89
2022/12/06 08:11:37;;;;;;;25.63;10.35;;;;;;;3.31;100.00;102015.41;5262607;28;20136;-89
2022/12/06 08:14:10;;;;;;;20.63;10.00;;;;;;;3.35;100.00;102014.38;5262433;28;20477;-89
2022/12/06 08:16:41;;;;;;;30.13;9.88;;;;;;;3.33;100.00;102005.66;5246801;28;20113;-90
2022/12/06 08:19:13;;;;;;;20.27;9.85;;;;;;;3.33;100.00;102000.38;5242925;28;20105;-90
2022/12/06 08:21:45;;;;;;;22.10;9.35;;;;;;;3.43;100.00;102012.25;5243504;28;20049;-90
2022/12/06 08:24:16;;;;;;;23.90;10.10;;;;;;;3.45;100.00;101993.72;5244000;28;20033;-89
2022/12/06 08:26:48;;;;;;;21.70;9.82;;;;;;;3.45;100.00;101996.34;5262526;28;20177;-90
2022/12/06 08:29:22;;;;;;;25.08;9.95;;;;;;;3.57;100.00;102003.72;5246980;28;20029;-89
2022/12/06 08:31:54;;;;;;;21.67;10.30;;;;;;;3.68;100.00;102008.50;5262169;28;20116;-90
2022/12/06 08:34:25;;;;;;;22.23;9.65;;;;;;;3.69;100.00;102011.06;5264777;28;20028;-90
2022/12/06 08:36:57;;;;;;;33.95;10.93;;;;;;;3.69;100.00;101997.03;5246109;28;20505;-92
2022/12/06 08:39:28;;;;;;;21.45;9.90;;;;;;;3.87;100.00;102008.53;5263838;28;20018;-90
2022/12/06 08:42:02;;;;;;;20.90;10.15;;;;;;;3.81;100.00;102019.38;5246143;28;20030;-90
2022/12/06 08:44:35;;;;;;;27.33;11.70;;;;;;;3.71;100.00;102011.00;5260653;28;20022;-94
2022/12/06 08:47:17;;;;;;;23.00;11.10;;;;;;;3.70;100.00;102010.16;5247664;28;20120;-94
2022/12/06 08:50:38;;;;;;;26.75;11.60;;;;;;;3.59;100.00;101991.31;5265058;28;20076;-94
2022/12/06 08:53:55;;;;;;;22.48;10.85;;;;;;;3.55;100.00;101997.66;5264007;28;20374;-95
2022/12/06 08:57:48;;;;;;;25.52;11.88;;;;;;;3.58;100.00;102019.47;5254724;28;20057;-95
2022/12/06 09:00:18;;;;;;;29.08;10.63;;;;;;;3.36;100.00;102013.44;5256634;28;20038;-93
2022/12/06 09:03:04;;;;;;;27.08;11.55;;;;;;;3.36;100.00;102021.34;5251730;28;20088;-96
2022/12/06 09:05:42;;;;;;;25.65;11.18;;;;;;;3.24;100.00;102035.06;5266471;28;20201;-94
2022/12/06 09:09:07;;;;;;;27.63;11.35;;;;;;;3.36;100.00;102037.16;5244883;28;20033;-93
2022/12/06 09:12:18;;;;;;;21.55;11.15;;;;;;;3.22;100.00;102020.16;5209149;28;20104;-95
2022/12/06 09:17:51;;;;;;;26.58;11.30;;;;;;;3.42;100.00;102036.91;5249812;28;20041;-93
2022/12/06 09:20:28;;;;;;;22.15;10.60;;;;;;;3.56;100.00;102036.31;5242683;28;20045;-95
2022/12/06 09:23:12;;;;;;;17.63;10.82;;;;;;;3.75;100.00;102041.59;5244676;28;20038;-91
2022/12/06 09:25:49;;;;;;;24.42;11.32;;;;;;;3.65;100.00;102041.19;5260758;28;20037;-92
2022/12/06 09:28:32;;;;;;;30.75;11.52;;;;;;;3.75;100.00;102026.66;5249148;28;20048;-93
2022/12/06 09:31:08;;;;;;;26.85;10.75;;;;;;;3.86;100.00;102036.72;5248449;28;20073;-94
2022/12/06 09:33:45;;;;;;;24.75;11.18;;;;;;;3.68;100.00;102029.63;5243280;28;20072;-93
2022/12/06 09:36:29;;;;;;;21.63;10.15;;;;;;;3.73;100.00;102038.19;5240173;28;20029;-93
2022/12/06 09:39:31;;;;;;;18.52;9.65;;;;;;;3.61;100.00;102021.09;5240966;28;20022;-94
2022/12/06 09:42:56;;;;;;;15.32;9.07;;;;;;;3.74;100.00;102043.41;5226450;28;20117;-94
2022/12/06 09:45:54;;;;;;;19.05;10.02;;;;;;;3.83;100.00;102043.91;5263135;28;20398;-94
2022/12/06 09:48:53;;;;;;;22.52;10.40;;;;;;;3.94;100.00;102037.22;5253246;28;20140;-93
2022/12/06 09:51:49;;;;;;;18.30;9.65;;;;;;;4.14;100.00;102038.94;5245046;28;20128;-94
2022/12/06 09:54:50;;;;;;;17.48;10.55;;;;;;;4.12;100.00;102038.16;5245550;28;20025;-93
2022/12/06 09:57:49;;;;;;;22.42;11.20;;;;;;;4.17;100.00;102040.56;5245144;28;20042;-94
2022/12/06 10:01:11;;;;;;;25.30;11.38;;;;;;;4.23;100.00;102045.56;5280766;28;20453;-93
2022/12/06 10:04:17;;;;;;;18.67;11.77;;;;;;;4.21;100.00;102044.78;5279784;28;20088;-93
2022/12/06 10:06:55;;;;;;;20.25;11.90;;;;;;;4.39;100.00;102036.94;5291753;28;20049;-92
2022/12/06 10:09:41;;;;;;;26.73;12.80;;;;;;;4.53;100.00;102037.13;5290584;28;20021;-92
2022/12/06 10:12:41;;;;;;;29.48;13.90;;;;;;;4.79;100.00;102032.38;5294809;28;20093;-93
2022/12/06 10:15:55;;;;;;;20.08;11.85;;;;;;;4.88;100.00;102032.75;5254367;28;20029;-93
2022/12/06 10:18:59;;;;;;;19.45;11.93;;;;;;;5.24;100.00;102023.00;5224816;28;20054;-94
2022/12/06 10:22:07;;;;;;;20.25;11.73;;;;;;;5.66;100.00;102025.22;5241667;28;20050;-93
2022/12/06 10:25:11;;;;;;;19.50;11.88;;;;;;;5.59;100.00;102021.19;5242083;28;20033;-94
2022/12/06 10:28:24;;;;;;;19.75;10.93;;;;;;;6.00;100.00;102015.47;5224106;28;20041;-93
2022/12/06 10:31:26;;;;;;;16.85;10.75;;;;;;;6.33;100.00;102019.84;5224081;28;20026;-94
2022/12/06 10:34:22;;;;;;;16.67;9.55;;;;;;;6.38;100.00;102016.94;5223707;28;20034;-93
2022/12/06 10:37:02;;;;;;;19.25;9.77;;;;;;;6.52;100.00;102021.44;5220268;28;20155;-93
2022/12/06 10:39:59;;;;;;;15.70;9.57;;;;;;;6.84;100.00;102018.75;5246225;28;20025;-93
2022/12/06 10:42:45;;;;;;;10.85;8.38;;;;;;;6.87;100.00;102027.38;5243887;28;20438;-94
2022/12/06 10:49:06;;;;;;;9.30;6.85;;;;;;;6.72;100.00;102025.63;5245463;28;20041;-93
2022/12/06 10:52:26;;;;;;;7.88;6.13;;;;;;;6.40;100.00;102001.81;5209642;28;20034;-94
2022/12/06 10:55:45;;;;;;;11.68;6.13;;;;;;;6.59;100.00;102020.16;5225752;28;20026;-93
2022/12/06 10:58:47;;;;;;;290.63;35.08;;;;;;;9.69;100.00;102027.16;5244198;28;20034;-94
2022/12/06 11:01:35;;;;;;;16.15;9.98;;;;;;;12.23;100.00;102024.94;5229704;28;20493;-93
2022/12/06 11:04:44;;;;;;;;;;;;;;;;;;;;;
2022/12/06 11:08:13;;;;;;;;;;;;;;;;;;;;;
2022/12/06 11:10:45;;;;;;;4.20;2.63;;;;;;;17.39;100.00;102028.75;5243844;28;42185;-88
2022/12/06 11:13:31;;;;;;;3.63;2.28;;;;;;;18.17;100.00;102018.03;5244445;28;20100;-86
2022/12/06 11:16:06;;;;;;;3.72;2.10;;;;;;;17.90;100.00;101996.50;5225699;28;20033;-88
2022/12/06 11:18:39;;;;;;;3.53;1.60;;;;;;;17.08;100.00;101987.09;5244291;28;20426;-88
2022/12/06 11:21:30;;;;;;;2.03;1.45;;;;;;;17.77;100.00;102009.56;5226019;28;20053;-89
2022/12/06 11:24:17;;;;;;;2.97;1.73;;;;;;;17.98;100.00;101995.66;5243813;28;20080;-86
2022/12/06 11:27:00;;;;;;;2.72;1.65;;;;;;;18.28;100.00;102001.50;5225182;28;20038;-87
2022/12/06 11:29:31;;;;;;;2.40;1.80;;;;;;;17.98;100.00;101994.84;5233768;28;20493;-87
2022/12/06 11:32:11;;;;;;;3.05;2.10;;;;;;;16.15;100.00;101998.97;5263144;28;20150;-87
2022/12/06 11:34:56;;;;;;;3.13;1.80;;;;;;;15.88;100.00;102002.50;5246508;28;20042;-86
2022/12/06 11:37:31;;;;;;;3.75;1.65;;;;;;;17.02;100.00;101988.53;5242209;28;20064;-87
2022/12/06 11:40:21;;;;;;;2.83;1.90;;;;;;;18.69;100.00;101994.31;5243886;28;20030;-87
2022/12/06 11:42:54;;;;;;;5.63;1.70;;;;;;;18.74;100.00;101982.13;5244119;28;20431;-87
2022/12/06 11:45:36;;;;;;;3.63;1.50;;;;;;;18.57;100.00;101965.94;5246834;28;20029;-87
2022/12/06 11:48:20;;;;;;;3.33;1.50;;;;;;;17.98;100.00;101976.78;5261530;28;20021;-87
2022/12/06 11:50:52;;;;;;;4.63;1.95;;;;;;;16.84;100.00;101953.53;5241002;28;20028;-87
2022/12/06 11:53:38;;;;;;;3.25;1.35;;;;;;;16.14;100.00;101956.91;5241813;28;20108;-87
2022/12/06 11:56:25;;;;;;;4.40;1.30;;;;;;;15.98;100.00;101964.81;5241768;28;20034;-87
2022/12/06 11:59:15;;;;;;;3.10;1.65;;;;;;;14.83;100.00;101972.13;5243418;28;20096;-86
2022/12/06 12:01:49;;;;;;;5.97;1.55;;;;;;;14.74;100.00;101943.41;5244013;28;20037;-87
2022/12/06 12:04:30;;;;;;;5.35;1.70;;;;;;;15.62;100.00;101940.47;5242329;28;20076;-86
2022/12/06 12:07:04;;;;;;;3.05;1.40;;;;;;;15.38;100.00;101952.59;5242965;28;20121;-86
2022/12/06 12:09:47;;;;;;;7.22;1.80;;;;;;;14.90;100.00;101941.00;5241128;28;20403;-86
2022/12/06 12:12:22;;;;;;;3.88;1.90;;;;;;;13.98;100.00;101939.53;5257826;28;20061;-86
2022/12/06 12:14:57;;;;;;;3.90;1.73;;;;;;;15.32;100.00;101950.47;5242125;28;20017;-86
2022/12/06 12:18:20;;;;;;;3.88;1.70;;;;;;;17.26;100.00;101928.53;5257641;28;20427;-88
2022/12/06 12:21:07;;;;;;;4.18;1.63;;;;;;;18.54;100.00;101949.22;5253347;28;20040;-88
2022/12/06 12:24:27;;;;;;;;;;;;;;;;;;;;;
2022/12/06 12:27:25;;;;;;;3.55;1.42;;;;;;;19.37;100.00;101930.03;5262343;28;39964;-88
2022/12/06 12:30:39;;;;;;;2.22;1.40;;;;;;;21.15;100.00;101932.72;5261358;28;20084;-88
2022/12/06 12:33:30;;;;;;;2.22;1.65;;;;;;;20.52;100.00;101923.97;5257701;28;20042;-88
2022/12/06 12:39:30;;;;;;;2.83;1.50;;;;;;;21.13;100.00;101928.53;5261567;28;20087;-88
2022/12/06 12:42:38;;;;;;;2.67;1.60;;;;;;;21.46;100.00;101915.44;5276441;28;20068;-88
2022/12/06 12:49:18;;;;;;;;;;;;;;;;;;;;;
2022/12/06 12:52:59;;;;;;;3.17;1.30;;;;;;;22.90;100.00;101924.69;5284773;28;39793;-87
2022/12/06 12:55:42;;;;;;;1.88;1.30;;;;;;;21.28;100.00;101914.94;5167706;28;20035;-89